createdAt,value
2022-11-05T00:01:02.791Z,94.62
2022-11-05T00:03:48.693Z,92.88
2022-11-05T00:06:34.907Z,94.90
2022-11-05T00:09:21.142Z,94.89
2022-11-05T00:12:07.101Z,95.46
2022-11-05T00:14:53.254Z,94.75
2022-11-05T00:17:21.204Z,95.19
2022-11-05T00:19:48.721Z,95.26
2022-11-05T00:22:34.569Z,96.11
2022-11-05T00:25:17.347Z,96.36
2022-11-05T00:27:47.612Z,96.50
2022-11-05T00:30:22.033Z,97.01
2022-11-05T00:32:51.755Z,97.14
2022-11-05T00:35:22.066Z,96.08
2022-11-05T00:37:50.613Z,97.78
2022-11-05T00:40:18.491Z,98.74
2022-11-05T00:43:04.421Z,98.57
2022-11-05T00:45:32.472Z,96.95
2022-11-05T00:48:18.336Z,95.84
2022-11-05T00:50:46.114Z,96.47
2022-11-05T00:53:13.886Z,96.69
2022-11-05T00:55:44.750Z,97.61
2022-11-05T00:58:23.258Z,97.55
2022-11-05T01:00:53.893Z,96.92
2022-11-05T01:03:26.580Z,96.57
2022-11-05T01:06:08.052Z,95.84
2022-11-05T01:08:36.548Z,96.07
2022-11-05T01:11:33.223Z,95.46
2022-11-05T01:14:07.836Z,96.96
2022-11-05T01:16:39.308Z,96.05
2022-11-05T01:19:10.162Z,95.76
2022-11-05T01:21:37.743Z,94.13
2022-11-05T01:24:05.773Z,93.37
2022-11-05T01:26:33.300Z,95.14
2022-11-05T01:29:00.892Z,95.53
2022-11-05T01:31:29.215Z,95.99
2022-11-05T01:33:56.669Z,98.58
2022-11-05T01:36:24.219Z,99.00
2022-11-05T01:38:51.714Z,97.91
2022-11-05T01:41:19.306Z,98.23
2022-11-05T01:43:51.050Z,96.85
2022-11-05T01:46:24.117Z,93.73
2022-11-05T01:48:57.271Z,94.27
2022-11-05T01:51:29.085Z,94.76
2022-11-05T01:54:04.924Z,95.70
2022-11-05T01:56:43.930Z,95.41
2022-11-05T01:59:30.706Z,95.96
2022-11-05T02:01:59.349Z,97.91
2022-11-05T02:05:07.643Z,96.28
2022-11-05T02:07:35.270Z,96.98
2022-11-05T02:10:13.828Z,94.92
2022-11-05T02:12:45.110Z,94.95
2022-11-05T02:15:52.059Z,94.29
2022-11-05T02:19:20.947Z,94.64
2022-11-05T02:22:38.643Z,94.44
2022-11-05T02:25:30.185Z,95.45
2022-11-05T02:54:49.829Z,100.00
2022-11-05T02:57:22.012Z,100.00
2022-11-05T02:59:49.548Z,100.00
2022-11-05T03:02:17.346Z,100.00
2022-11-05T03:04:44.990Z,100.00
2022-11-05T03:07:18.163Z,100.00
2022-11-05T03:10:01.794Z,100.00
2022-11-05T03:13:06.261Z,100.00
2022-11-05T03:15:57.654Z,100.00
2022-11-05T03:18:52.109Z,100.00
2022-11-05T03:21:42.595Z,100.00
2022-11-05T03:24:19.196Z,100.00
2022-11-05T03:27:01.154Z,100.00
2022-11-05T03:29:43.675Z,100.00
2022-11-05T03:32:13.265Z,100.00
2022-11-05T03:34:52.131Z,100.00
2022-11-05T03:37:24.259Z,100.00
2022-11-05T03:39:56.764Z,100.00
2022-11-05T03:42:32.284Z,100.00
2022-11-05T03:45:06.169Z,100.00
2022-11-05T03:47:39.852Z,100.00
2022-11-05T03:50:41.517Z,100.00
2022-11-05T03:53:26.453Z,100.00
2022-11-05T03:56:08.190Z,100.00
2022-11-05T03:58:37.154Z,100.00
2022-11-05T04:01:05.015Z,100.00
2022-11-05T04:03:36.380Z,100.00
2022-11-05T04:06:25.060Z,100.00
2022-11-05T04:09:11.571Z,100.00
2022-11-05T04:11:57.438Z,100.00
2022-11-05T04:14:26.294Z,100.00
2022-11-05T04:17:06.387Z,100.00
2022-11-05T04:20:00.859Z,99.32
2022-11-05T04:22:50.296Z,100.00
2022-11-05T04:25:19.566Z,99.97
2022-11-05T04:27:47.617Z,100.00
2022-11-05T04:30:20.002Z,100.00
2022-11-05T04:33:15.308Z,99.85
2022-11-05T04:35:47.658Z,100.00
2022-11-05T04:38:18.670Z,100.00
2022-11-05T04:40:47.767Z,100.00
2022-11-05T04:43:19.201Z,100.00
2022-11-05T04:45:48.441Z,100.00
2022-11-05T04:48:15.975Z,100.00
2022-11-05T04:50:43.413Z,100.00
2022-11-05T04:53:11.145Z,100.00
2022-11-05T04:55:38.802Z,100.00
2022-11-05T04:58:06.482Z,100.00
2022-11-05T05:00:33.995Z,100.00
2022-11-05T05:03:01.511Z,100.00
2022-11-05T05:05:30.577Z,100.00
2022-11-05T05:08:05.450Z,100.00
2022-11-05T05:10:33.500Z,100.00
2022-11-05T05:13:00.957Z,100.00
2022-11-05T05:15:28.574Z,100.00
2022-11-05T05:17:56.377Z,100.00
2022-11-05T05:20:42.303Z,100.00
2022-11-05T05:23:11.571Z,100.00
2022-11-05T05:25:40.017Z,100.00
2022-11-05T05:28:07.516Z,100.00
2022-11-05T05:30:35.345Z,100.00
2022-11-05T05:33:04.439Z,100.00
2022-11-05T05:35:32.028Z,100.00
2022-11-05T05:37:59.471Z,100.00
2022-11-05T05:40:27.573Z,100.00
2022-11-05T05:42:56.037Z,98.75
2022-11-05T05:45:23.518Z,98.57
2022-11-05T05:47:51.022Z,96.05
2022-11-05T05:50:18.455Z,93.74
2022-11-05T05:52:52.902Z,90.14
2022-11-05T05:55:20.506Z,92.46
2022-11-05T05:57:47.935Z,93.21
2022-11-05T06:00:15.898Z,94.05
2022-11-05T06:02:43.506Z,95.31
2022-11-05T06:05:11.222Z,97.17
2022-11-05T06:07:38.666Z,98.49
2022-11-05T06:10:06.859Z,97.50
2022-11-05T06:12:34.509Z,97.49
2022-11-05T06:15:02.074Z,97.52
2022-11-05T06:17:29.521Z,97.82
2022-11-05T06:19:57.014Z,98.98
2022-11-05T06:22:24.840Z,98.09
2022-11-05T06:24:52.338Z,98.86
2022-11-05T06:27:19.779Z,99.81
2022-11-05T06:29:47.226Z,100.00
2022-11-05T06:32:14.662Z,99.34
2022-11-05T06:34:42.133Z,99.82
2022-11-05T06:37:09.606Z,100.00
2022-11-05T06:39:37.122Z,99.38
2022-11-05T06:42:17.945Z,99.65
2022-11-05T06:44:46.202Z,97.50
2022-11-05T06:47:13.670Z,97.00
2022-11-05T06:49:41.303Z,96.84
2022-11-05T06:52:09.282Z,92.69
2022-11-05T06:54:37.135Z,90.92
2022-11-05T06:57:06.168Z,93.27
2022-11-05T06:59:34.496Z,94.75
2022-11-05T07:02:03.341Z,95.81
2022-11-05T07:04:30.894Z,93.89
2022-11-05T07:07:01.191Z,93.86
2022-11-05T07:09:29.999Z,93.68
2022-11-05T07:11:57.443Z,92.58
2022-11-05T07:14:24.902Z,89.73
2022-11-05T07:16:52.396Z,88.66
2022-11-05T07:19:19.928Z,88.79
2022-11-05T07:21:48.699Z,90.80
2022-11-05T07:24:16.331Z,91.19
2022-11-05T07:26:43.974Z,90.88
2022-11-05T07:29:11.497Z,91.95
2022-11-05T07:31:39.019Z,92.25
2022-11-05T07:34:06.624Z,92.33
2022-11-05T07:36:34.652Z,93.42
2022-11-05T07:39:02.436Z,93.09
2022-11-05T07:41:29.910Z,93.44
2022-11-05T07:43:57.585Z,93.06
2022-11-05T07:46:25.126Z,88.38
2022-11-05T07:48:52.712Z,91.03
2022-11-05T07:51:20.204Z,90.40
2022-11-05T07:53:48.568Z,88.55
2022-11-05T07:56:16.812Z,85.44
2022-11-05T07:58:44.415Z,84.90
2022-11-05T08:01:12.104Z,83.52
2022-11-05T08:03:39.758Z,83.11
2022-11-05T08:06:07.778Z,82.48
2022-11-05T08:08:36.189Z,79.79
2022-11-05T08:11:06.640Z,79.93
2022-11-05T08:13:35.148Z,78.93
2022-11-05T08:16:03.917Z,78.17
2022-11-05T08:18:33.278Z,77.89
2022-11-05T08:21:06.043Z,76.18
2022-11-05T08:23:34.318Z,76.28
2022-11-05T08:26:04.391Z,74.97
2022-11-05T08:28:32.114Z,75.93
2022-11-05T08:30:59.803Z,75.10
2022-11-05T08:33:29.491Z,73.68
2022-11-05T08:35:57.022Z,72.12
2022-11-05T08:38:24.426Z,71.09
2022-11-05T08:40:59.166Z,69.95
2022-11-05T08:43:27.357Z,70.33
2022-11-05T08:45:55.158Z,69.91
2022-11-05T08:48:22.759Z,68.55
2022-11-05T08:50:50.571Z,65.69
2022-11-05T08:53:18.480Z,67.08
2022-11-05T08:55:47.835Z,66.17
2022-11-05T08:58:17.410Z,67.54
2022-11-05T09:00:48.905Z,66.74
2022-11-05T09:03:17.765Z,67.15
2022-11-05T09:05:45.393Z,65.49
2022-11-05T09:08:18.948Z,65.64
2022-11-05T09:10:48.088Z,64.89
2022-11-05T09:13:19.327Z,65.96
2022-11-05T09:15:49.324Z,66.30
2022-11-05T09:18:18.854Z,66.57
2022-11-05T09:20:47.121Z,65.91
2022-11-05T09:23:15.861Z,66.01
2022-11-05T09:25:44.536Z,64.13
2022-11-05T09:28:17.329Z,64.34
2022-11-05T09:30:51.678Z,65.44
2022-11-05T09:33:23.614Z,65.10
2022-11-05T09:35:52.052Z,62.22
2022-11-05T09:38:20.066Z,64.61
2022-11-05T09:41:04.246Z,65.53
2022-11-05T09:43:45.082Z,63.50
2022-11-05T09:46:27.517Z,65.30
2022-11-05T09:49:04.500Z,64.24
2022-11-05T09:51:33.177Z,60.72
2022-11-05T09:54:05.382Z,62.96
2022-11-05T09:56:37.649Z,60.31
2022-11-05T09:59:28.117Z,60.57
2022-11-05T10:02:12.095Z,60.31
2022-11-05T10:04:40.523Z,59.97
2022-11-05T10:07:15.609Z,59.39
2022-11-05T10:09:48.797Z,60.99
2022-11-05T10:12:50.500Z,59.19
2022-11-05T10:15:26.546Z,57.15
2022-11-05T10:18:20.112Z,57.60
2022-11-05T10:20:50.034Z,56.38
2022-11-05T10:23:21.573Z,54.71
2022-11-05T10:26:04.224Z,54.61
2022-11-05T10:28:34.374Z,54.63
2022-11-05T10:31:09.519Z,54.15
2022-11-05T10:33:57.107Z,53.11
2022-11-05T10:36:38.010Z,52.66
2022-11-05T10:39:18.120Z,52.72
2022-11-05T10:41:52.896Z,53.22
2022-11-05T10:44:34.399Z,51.38
2022-11-05T10:48:16.838Z,51.34
2022-11-05T10:50:45.633Z,51.67
2022-11-05T10:53:22.114Z,50.29
2022-11-05T10:55:54.314Z,48.46
2022-11-05T10:58:30.201Z,46.46
2022-11-05T11:00:57.872Z,47.46
2022-11-05T11:03:48.771Z,47.22
2022-11-05T11:06:28.199Z,46.56
2022-11-05T11:09:17.530Z,45.84
2022-11-05T11:11:46.038Z,45.39
2022-11-05T11:14:13.560Z,45.33
2022-11-05T11:16:47.654Z,44.93
2022-11-05T11:19:35.136Z,45.78
2022-11-05T11:22:05.697Z,45.15
2022-11-05T11:24:52.315Z,44.09
2022-11-05T11:27:28.534Z,41.88
2022-11-05T11:30:02.551Z,41.63
2022-11-05T11:32:40.178Z,40.25
2022-11-05T11:35:26.007Z,39.01
2022-11-05T11:37:57.150Z,38.22
2022-11-05T11:40:35.549Z,39.46
2022-11-05T11:43:28.392Z,40.52
2022-11-05T11:46:04.847Z,41.26
2022-11-05T11:48:37.070Z,41.45
2022-11-05T11:51:30.462Z,41.15
2022-11-05T11:54:02.837Z,41.71
2022-11-05T11:56:43.132Z,41.26
2022-11-05T11:59:46.890Z,41.10
2022-11-05T12:02:44.254Z,42.36
2022-11-05T12:05:59.588Z,42.66
2022-11-05T12:09:11.173Z,42.05
2022-11-05T12:12:00.865Z,41.65
2022-11-05T12:15:01.740Z,41.49
2022-11-05T12:18:02.107Z,41.28
2022-11-05T12:20:48.033Z,41.78
2022-11-05T12:23:37.120Z,42.07
2022-11-05T12:26:25.761Z,40.81
2022-11-05T12:29:23.876Z,40.27
2022-11-05T12:32:12.932Z,40.71
2022-11-05T12:35:44.131Z,41.23
2022-11-05T12:38:58.244Z,40.87
2022-11-05T12:42:35.227Z,40.99
2022-11-05T12:45:26.131Z,41.06
2022-11-05T12:48:16.659Z,42.42
2022-11-05T12:50:57.181Z,44.22
2022-11-05T12:53:37.563Z,44.04
2022-11-05T12:56:33.682Z,44.19
2022-11-05T12:59:25.935Z,42.92
2022-11-05T13:02:15.337Z,42.44
2022-11-05T13:05:10.081Z,41.55
2022-11-05T13:08:05.321Z,41.09
2022-11-05T13:10:51.131Z,41.21
2022-11-05T13:13:51.985Z,41.70
2022-11-05T13:16:39.851Z,41.43
2022-11-05T13:19:32.546Z,41.53
2022-11-05T13:22:30.451Z,42.18
2022-11-05T13:25:19.611Z,43.04
2022-11-05T13:28:35.628Z,43.57
2022-11-05T13:31:06.785Z,44.82
2022-11-05T13:33:44.744Z,46.08
2022-11-05T13:36:52.491Z,47.38
2022-11-05T13:39:24.367Z,48.36
2022-11-05T13:42:35.224Z,49.22
2022-11-05T13:45:39.056Z,51.19
2022-11-05T13:48:48.412Z,51.41
2022-11-05T13:51:40.511Z,52.45
2022-11-05T13:54:29.552Z,53.31
2022-11-05T13:57:26.210Z,54.85
2022-11-05T14:00:17.596Z,55.60
2022-11-05T14:02:55.324Z,55.79
2022-11-05T14:05:35.328Z,56.24
2022-11-05T14:08:15.334Z,58.72
2022-11-05T14:11:00.685Z,60.20
2022-11-05T14:14:06.866Z,60.41
2022-11-05T14:16:57.220Z,58.90
2022-11-05T14:19:33.446Z,57.38
2022-11-05T14:22:01.784Z,58.52
2022-11-05T14:24:38.614Z,60.29
2022-11-05T14:27:10.507Z,60.89
2022-11-05T14:29:44.771Z,60.64
2022-11-05T14:32:22.071Z,60.62
2022-11-05T14:35:17.207Z,58.61
2022-11-05T14:37:54.056Z,59.59
2022-11-05T14:40:42.568Z,63.19
2022-11-05T14:43:16.100Z,64.13
2022-11-05T14:46:17.371Z,65.17
2022-11-05T14:49:09.310Z,65.88
2022-11-05T14:51:44.453Z,66.73
2022-11-05T14:54:34.814Z,66.94
2022-11-05T14:57:03.522Z,66.87
2022-11-05T14:59:32.487Z,67.60
2022-11-05T15:02:20.871Z,68.49
2022-11-05T15:04:51.040Z,68.55
2022-11-05T15:07:24.374Z,68.74
2022-11-05T15:09:54.839Z,69.47
2022-11-05T15:12:50.845Z,69.23
2022-11-05T15:15:39.743Z,69.29
2022-11-05T15:18:17.854Z,70.13
2022-11-05T15:20:52.583Z,70.54
2022-11-05T15:23:31.217Z,71.11
2022-11-05T15:26:04.657Z,71.58
2022-11-05T15:28:51.156Z,72.31
2022-11-05T15:31:44.151Z,72.74
2022-11-05T15:34:32.503Z,73.35
2022-11-05T15:37:25.441Z,73.03
2022-11-05T15:39:57.684Z,74.84
2022-11-05T15:42:28.512Z,75.29
2022-11-05T15:45:00.490Z,75.09
2022-11-05T15:47:36.114Z,75.67
2022-11-05T15:50:17.367Z,76.28
2022-11-05T15:52:56.699Z,76.23
2022-11-05T15:55:31.272Z,76.57
2022-11-05T15:58:07.460Z,76.57
2022-11-05T16:00:39.121Z,76.51
2022-11-05T16:03:28.984Z,77.27
2022-11-05T16:05:57.493Z,77.45
2022-11-05T16:08:33.510Z,77.79
2022-11-05T16:11:02.736Z,78.06
2022-11-05T16:13:39.551Z,77.36
2022-11-05T16:16:19.420Z,77.32
2022-11-05T16:18:50.474Z,77.69
2022-11-05T16:21:23.737Z,78.30
2022-11-05T16:24:01.475Z,78.30
2022-11-05T16:27:01.810Z,78.62
2022-11-05T16:29:41.228Z,77.79
2022-11-05T16:32:31.572Z,78.19
2022-11-05T16:35:09.770Z,78.17
2022-11-05T16:37:47.737Z,79.06
2022-11-05T16:40:25.947Z,78.36
2022-11-05T16:42:55.401Z,77.45
2022-11-05T16:45:25.542Z,78.52
2022-11-05T16:47:53.380Z,79.60
2022-11-05T16:50:30.470Z,79.96
2022-11-05T16:53:01.804Z,80.47
2022-11-05T16:55:32.298Z,80.07
2022-11-05T16:58:00.704Z,79.51
2022-11-05T17:00:36.676Z,79.72
2022-11-05T17:03:08.215Z,80.24
2022-11-05T17:05:38.140Z,79.59
2022-11-05T17:08:09.260Z,79.44
2022-11-05T17:10:41.142Z,79.86
2022-11-05T17:13:18.782Z,79.73
2022-11-05T17:16:16.168Z,79.62
2022-11-05T17:18:46.908Z,79.36
2022-11-05T17:21:16.725Z,78.16
2022-11-05T17:23:47.271Z,79.12
2022-11-05T17:26:22.959Z,79.89
2022-11-05T17:28:55.322Z,79.88
2022-11-05T17:31:23.173Z,80.63
2022-11-05T17:33:50.862Z,81.03
2022-11-05T17:36:21.289Z,80.96
2022-11-05T17:38:55.273Z,80.56
2022-11-05T17:41:25.670Z,80.77
2022-11-05T17:43:58.578Z,80.76
2022-11-05T17:46:27.450Z,80.94
2022-11-05T17:48:56.317Z,81.29
2022-11-05T17:51:24.074Z,81.69
2022-11-05T17:53:54.541Z,81.04
2022-11-05T17:56:33.846Z,80.51
2022-11-05T17:59:03.830Z,80.09
2022-11-05T18:01:36.038Z,79.26
2022-11-05T18:04:08.888Z,78.84
2022-11-05T18:06:39.694Z,78.90
2022-11-05T18:09:11.050Z,79.54
2022-11-05T18:11:40.728Z,79.78
2022-11-05T18:14:12.206Z,80.08
2022-11-05T18:16:39.961Z,81.03
2022-11-05T18:19:10.566Z,77.80
2022-11-05T18:21:45.207Z,78.59
2022-11-05T18:24:12.980Z,79.50
2022-11-05T18:26:40.670Z,80.11
2022-11-05T18:29:09.057Z,80.84
2022-11-05T18:31:36.880Z,79.44
2022-11-05T18:34:05.316Z,79.50
2022-11-05T18:36:36.059Z,79.08
2022-11-05T18:39:07.879Z,79.35
2022-11-05T18:41:37.159Z,80.42
2022-11-05T18:44:06.025Z,81.40
2022-11-05T18:46:57.073Z,82.40
2022-11-05T18:49:24.131Z,82.94
2022-11-05T18:51:51.902Z,82.25
2022-11-05T18:54:21.659Z,82.03
2022-11-05T18:56:52.064Z,82.97
2022-11-05T18:59:38.613Z,83.77
2022-11-05T19:02:10.931Z,86.36
2022-11-05T19:04:39.099Z,86.78
2022-11-05T19:07:10.897Z,86.40
2022-11-05T19:09:40.641Z,86.21
2022-11-05T19:12:10.422Z,86.35
2022-11-05T19:14:38.270Z,86.20
2022-11-05T19:17:06.116Z,87.44
2022-11-05T19:19:33.944Z,85.70
2022-11-05T19:22:05.304Z,86.55
2022-11-05T19:24:38.948Z,86.68
2022-11-05T19:27:06.735Z,87.14
2022-11-05T19:29:37.157Z,87.29
2022-11-05T19:32:05.234Z,87.81
2022-11-05T19:34:33.134Z,87.57
2022-11-05T19:37:01.437Z,87.65
2022-11-05T19:39:29.378Z,88.56
2022-11-05T19:42:03.767Z,88.86
2022-11-05T19:44:32.041Z,89.56
2022-11-05T19:46:59.822Z,90.59
2022-11-05T19:49:28.819Z,90.05
2022-11-05T19:51:58.456Z,89.18
2022-11-05T19:54:26.424Z,91.05
2022-11-05T19:56:56.500Z,93.45
2022-11-05T19:59:25.737Z,94.59
2022-11-05T20:01:53.550Z,94.65
2022-11-05T20:04:23.369Z,93.59
2022-11-05T20:06:54.649Z,91.46
2022-11-05T20:09:23.270Z,88.71
2022-11-05T20:12:14.146Z,90.11
2022-11-05T20:14:41.957Z,91.64
2022-11-05T20:17:13.010Z,92.31
2022-11-05T20:19:47.960Z,92.66
2022-11-05T20:22:15.758Z,92.41
2022-11-05T20:24:43.616Z,92.48
2022-11-05T20:27:14.023Z,93.44
2022-11-05T20:29:41.908Z,93.09
2022-11-05T20:32:12.631Z,94.21
2022-11-05T20:34:40.580Z,94.17
2022-11-05T20:37:08.604Z,93.98
2022-11-05T20:39:39.371Z,94.68
2022-11-05T20:42:07.713Z,93.82
2022-11-05T20:44:36.031Z,94.91
2022-11-05T20:47:03.802Z,95.59
2022-11-05T20:49:31.668Z,95.85
2022-11-05T20:52:02.282Z,96.45
2022-11-05T20:54:30.038Z,96.44
2022-11-05T20:56:59.050Z,97.40
2022-11-05T20:59:28.729Z,98.50
2022-11-05T21:01:58.637Z,98.74
2022-11-05T21:04:31.254Z,99.51
2022-11-05T21:06:59.044Z,100.00
2022-11-05T21:09:28.823Z,100.00
2022-11-05T21:12:11.983Z,100.00
2022-11-05T21:14:44.480Z,100.00
2022-11-05T21:17:14.859Z,99.83
2022-11-05T21:19:45.692Z,99.11
2022-11-05T21:22:17.220Z,99.68
2022-11-05T21:24:46.529Z,98.98
2022-11-05T21:27:14.285Z,99.45
2022-11-05T21:29:42.521Z,98.74
2022-11-05T21:32:13.741Z,98.25
2022-11-05T21:34:42.582Z,98.83
2022-11-05T21:37:11.392Z,98.50
2022-11-05T21:39:42.604Z,98.08
2022-11-05T21:42:10.343Z,99.22
2022-11-05T21:44:38.068Z,100.00
2022-11-05T21:47:06.027Z,99.24
2022-11-05T21:49:36.122Z,99.61
2022-11-05T21:52:24.969Z,99.98
2022-11-05T21:55:11.218Z,99.99
2022-11-05T21:57:58.554Z,99.36
2022-11-05T22:00:26.464Z,99.00
2022-11-05T22:02:58.761Z,100.00
2022-11-05T22:05:28.054Z,100.00
2022-11-05T22:07:56.958Z,100.00
2022-11-05T22:10:24.852Z,100.00
2022-11-05T22:12:52.523Z,100.00
2022-11-05T22:15:20.380Z,100.00
2022-11-05T22:17:51.995Z,100.00
2022-11-05T22:20:22.599Z,100.00
2022-11-05T22:22:50.474Z,100.00
2022-11-05T22:25:18.322Z,100.00
2022-11-05T22:27:46.315Z,100.00
2022-11-05T22:30:14.882Z,100.00
2022-11-05T22:32:42.765Z,100.00
2022-11-05T22:35:10.908Z,100.00
2022-11-05T22:37:38.676Z,100.00
2022-11-05T22:40:07.113Z,100.00
2022-11-05T22:42:34.929Z,100.00
2022-11-05T22:45:02.871Z,100.00
2022-11-05T22:47:30.531Z,100.00
2022-11-05T22:49:58.542Z,100.00
2022-11-05T22:52:27.884Z,100.00
2022-11-05T22:54:55.595Z,100.00
2022-11-05T22:57:23.273Z,100.00
2022-11-05T22:59:51.467Z,100.00
2022-11-05T23:02:19.360Z,100.00
2022-11-05T23:04:47.247Z,100.00
2022-11-05T23:07:33.568Z,100.00
2022-11-05T23:10:20.022Z,100.00
2022-11-05T23:12:48.264Z,100.00
2022-11-05T23:15:34.205Z,100.00
2022-11-05T23:18:20.953Z,100.00
2022-11-05T23:21:07.009Z,100.00
2022-11-05T23:23:53.672Z,100.00
2022-11-05T23:26:40.175Z,100.00
2022-11-05T23:29:07.900Z,100.00
2022-11-05T23:31:53.939Z,100.00
2022-11-05T23:34:21.600Z,100.00
2022-11-05T23:37:09.184Z,100.00
2022-11-05T23:39:41.402Z,100.00
2022-11-05T23:42:29.173Z,100.00
2022-11-05T23:45:15.611Z,100.00
2022-11-05T23:48:02.627Z,100.00
2022-11-05T23:50:35.620Z,100.00
2022-11-05T23:53:07.451Z,100.00
2022-11-05T23:55:35.685Z,100.00
2022-11-05T23:58:03.346Z,100.00
